Time;durP1;ratioP1;P1;durP2;ratioP2;P2;SDS_P1;SDS_P2;PMS_P1;PMS_P2;Temp;Humidity;BMP_temperature;BMP_pressure;BME280_temperature;BME280_humidity;BME280_pressure;Samples;Min_cycle;Max_cycle;Signal;HPM_P1;HPM_P2
2024/01/03 00:00:27;;;;;;;24.67;4.17;;;8.00;99.90;;;;;;5165124;27;20047;-78
2024/01/03 00:02:54;;;;;;;17.30;3.30;;;7.90;99.90;;;;;;5139588;27;20388;-81
2024/01/03 00:05:28;;;;;;;18.40;3.35;;;7.90;99.90;;;;;;5149393;27;20560;-80
2024/01/03 00:07:54;;;;;;;17.73;3.63;;;8.00;99.90;;;;;;5130773;27;20072;-79
2024/01/03 00:10:39;;;;;;;14.80;2.97;;;7.80;99.90;;;;;;5121585;27;20077;-79
2024/01/03 00:13:24;;;;;;;19.77;3.38;;;7.80;99.90;;;;;;5133653;27;20397;-78
2024/01/03 00:16:20;;;;;;;16.92;3.53;;;7.80;99.90;;;;;;5150600;27;20034;-78
2024/01/03 00:18:58;;;;;;;16.20;4.05;;;7.90;99.90;;;;;;5127494;27;20072;-78
2024/01/03 00:21:25;;;;;;;21.50;4.00;;;8.00;99.90;;;;;;5141768;27;20042;-79
2024/01/03 00:23:58;;;;;;;20.30;3.35;;;7.90;99.90;;;;;;5110834;27;20058;-78
2024/01/03 00:26:29;;;;;;;24.80;3.85;;;7.80;99.90;;;;;;5151245;27;20463;-78
2024/01/03 00:28:56;;;;;;;14.13;2.67;;;7.90;99.90;;;;;;5123187;27;20069;-79
2024/01/03 00:31:41;;;;;;;11.15;2.72;;;7.90;99.90;;;;;;5150929;27;20184;-79
2024/01/03 00:34:29;;;;;;;13.38;3.00;;;7.80;99.90;;;;;;5161328;27;20485;-77
2024/01/03 00:36:55;;;;;;;19.58;3.45;;;7.90;99.90;;;;;;5142819;27;20179;-78
2024/01/03 00:39:33;;;;;;;12.75;3.42;;;7.80;99.90;;;;;;5143268;27;20118;-77
2024/01/03 00:42:00;;;;;;;18.42;4.30;;;7.80;99.90;;;;;;5146820;27;20400;-80
2024/01/03 00:44:25;;;;;;;20.63;3.83;;;7.70;99.90;;;;;;5136645;27;20047;-79
2024/01/03 00:46:56;;;;;;;13.98;2.90;;;7.70;99.90;;;;;;5158501;27;20096;-77
2024/01/03 00:49:23;;;;;;;16.25;3.28;;;7.80;99.90;;;;;;5110740;27;20071;-79
2024/01/03 00:51:49;;;;;;;21.05;4.40;;;7.70;99.90;;;;;;5143157;27;20070;-77
2024/01/03 00:54:17;;;;;;;18.40;3.38;;;8.40;99.90;;;;;;5123605;27;20039;-78
2024/01/03 00:56:44;;;;;;;19.45;3.15;;;7.80;99.90;;;;;;5124776;27;20043;-77
2024/01/03 00:59:10;;;;;;;17.48;3.30;;;7.60;99.90;;;;;;5142258;27;20544;-78
2024/01/03 01:01:36;;;;;;;18.83;3.60;;;7.60;99.90;;;;;;5145840;27;20059;-79
2024/01/03 01:04:02;;;;;;;19.42;3.38;;;7.60;99.90;;;;;;5108466;27;20146;-79
2024/01/03 01:06:29;;;;;;;21.98;3.67;;;7.70;99.90;;;;;;5163364;27;20070;-79
2024/01/03 01:08:54;;;;;;;22.98;3.97;;;7.60;99.90;;;;;;5138882;27;20038;-79
2024/01/03 01:11:20;;;;;;;22.48;3.95;;;7.70;99.90;;;;;;5158873;27;20030;-80
2024/01/03 01:13:46;;;;;;;31.08;3.65;;;7.70;99.90;;;;;;5144257;27;20050;-78
2024/01/03 01:16:11;;;;;;;32.35;5.00;;;7.70;99.90;;;;;;5154482;27;20400;-81
2024/01/03 01:18:40;;;;;;;27.17;4.40;;;7.70;99.90;;;;;;5132861;27;20073;-77
2024/01/03 01:21:06;;;;;;;22.73;3.92;;;7.70;99.90;;;;;;5127339;27;20130;-78
2024/01/03 01:23:35;;;;;;;34.22;3.88;;;7.60;99.90;;;;;;5122567;27;20074;-78
2024/01/03 01:26:00;;;;;;;27.42;4.10;;;7.70;99.90;;;;;;5150411;27;20082;-77
2024/01/03 01:28:26;;;;;;;17.92;4.30;;;7.70;99.90;;;;;;5146468;27;20027;-80
2024/01/03 01:30:52;;;;;;;18.35;3.78;;;7.70;99.90;;;;;;5148289;27;20052;-78
2024/01/03 01:33:17;;;;;;;29.58;4.60;;;7.50;99.90;;;;;;5132286;27;20071;-77
2024/01/03 01:35:43;;;;;;;21.38;3.50;;;7.50;99.90;;;;;;5133297;27;20043;-79
2024/01/03 01:38:09;;;;;;;23.70;4.30;;;7.80;99.90;;;;;;5131299;27;20130;-79
2024/01/03 01:40:34;;;;;;;17.25;4.05;;;7.60;99.90;;;;;;5134980;27;20072;-79
2024/01/03 01:43:00;;;;;;;29.17;3.90;;;7.60;99.90;;;;;;5117530;27;20374;-78
2024/01/03 01:45:26;;;;;;;20.95;3.47;;;7.70;99.90;;;;;;5150934;27;20079;-78
2024/01/03 01:47:52;;;;;;;21.73;4.32;;;7.70;99.90;;;;;;5161195;27;20038;-79
2024/01/03 01:50:19;;;;;;;29.42;4.57;;;7.60;99.90;;;;;;5131761;27;20047;-78
2024/01/03 01:52:47;;;;;;;22.92;4.00;;;7.70;99.90;;;;;;5157284;27;20038;-78
2024/01/03 01:55:13;;;;;;;22.35;4.03;;;7.60;99.90;;;;;;5119040;27;20034;-78
2024/01/03 01:57:42;;;;;;;25.77;4.22;;;7.60;99.90;;;;;;5118834;27;20042;-79
2024/01/03 02:00:09;;;;;;;20.23;3.83;;;7.70;99.90;;;;;;5120218;27;20047;-79
2024/01/03 02:02:39;;;;;;;22.75;4.00;;;7.50;99.90;;;;;;5140626;27;20076;-79
2024/01/03 02:05:05;;;;;;;19.00;4.13;;;7.60;99.90;;;;;;5156119;27;20047;-78
2024/01/03 02:07:31;;;;;;;23.05;4.05;;;7.70;99.90;;;;;;5158677;27;20090;-79
2024/01/03 02:09:57;;;;;;;19.08;4.18;;;7.60;99.90;;;;;;5124482;27;20504;-79
2024/01/03 02:12:29;;;;;;;26.60;4.32;;;7.60;99.90;;;;;;5123175;27;20034;-79
2024/01/03 02:14:55;;;;;;;20.10;4.40;;;7.80;99.90;;;;;;5127252;27;20051;-79
2024/01/03 02:17:21;;;;;;;18.58;3.70;;;7.70;99.90;;;;;;5128487;27;20366;-78
2024/01/03 02:19:48;;;;;;;29.63;3.95;;;7.70;99.90;;;;;;5144600;27;20099;-79
2024/01/03 02:22:13;;;;;;;26.33;4.10;;;7.80;99.90;;;;;;5140361;27;20046;-78
2024/01/03 02:24:39;;;;;;;21.95;3.83;;;7.80;99.90;;;;;;5139672;27;20062;-78
2024/01/03 02:27:05;;;;;;;22.83;4.47;;;7.70;99.90;;;;;;5122731;27;20038;-78
2024/01/03 02:29:30;;;;;;;28.85;4.22;;;7.80;99.90;;;;;;5157477;27;20047;-76
2024/01/03 02:31:56;;;;;;;34.13;4.78;;;7.70;99.90;;;;;;5152912;27;20035;-79
2024/01/03 02:34:21;;;;;;;28.23;5.10;;;7.60;99.90;;;;;;5159566;27;20047;-79
2024/01/03 02:36:51;;;;;;;33.20;4.82;;;7.80;99.90;;;;;;5150812;27;20030;-76
2024/01/03 02:39:18;;;;;;;17.10;3.30;;;7.90;99.90;;;;;;5164925;27;20058;-76
2024/01/03 02:41:44;;;;;;;28.05;4.15;;;7.90;99.90;;;;;;5155753;27;20484;-77
2024/01/03 02:44:10;;;;;;;28.10;4.13;;;7.70;99.90;;;;;;5111828;27;20080;-78
2024/01/03 02:46:36;;;;;;;22.08;4.03;;;7.90;99.90;;;;;;5147107;27;20432;-77
2024/01/03 02:49:02;;;;;;;33.72;4.55;;;7.80;99.90;;;;;;5144192;27;20055;-77
2024/01/03 02:51:28;;;;;;;30.92;4.80;;;7.90;99.90;;;;;;5148139;27;20380;-76
2024/01/03 02:53:53;;;;;;;22.25;3.75;;;7.90;99.90;;;;;;5142681;27;20047;-77
2024/01/03 02:56:19;;;;;;;22.98;3.90;;;7.90;99.90;;;;;;5139847;27;20043;-76
2024/01/03 02:58:45;;;;;;;22.60;3.63;;;7.90;99.90;;;;;;5163431;27;20035;-77
2024/01/03 03:01:11;;;;;;;18.38;3.83;;;7.90;99.90;;;;;;5131515;27;20047;-77
2024/01/03 03:03:36;;;;;;;25.05;3.97;;;7.90;99.90;;;;;;5140927;27;20027;-77
2024/01/03 03:06:03;;;;;;;25.20;3.85;;;7.90;99.90;;;;;;5130366;27;20066;-77
2024/01/03 03:08:29;;;;;;;18.48;3.40;;;7.90;99.90;;;;;;5160294;27;20039;-77
2024/01/03 03:10:54;;;;;;;24.50;4.53;;;7.90;99.90;;;;;;5111073;27;20047;-78
2024/01/03 03:13:20;;;;;;;20.92;3.75;;;7.90;99.90;;;;;;5115677;28;20039;-75
2024/01/03 03:15:46;;;;;;;17.17;3.28;;;7.90;99.90;;;;;;5116592;27;20042;-77
2024/01/03 03:18:13;;;;;;;23.58;4.43;;;8.00;99.90;;;;;;5127198;27;20386;-77
2024/01/03 03:20:39;;;;;;;23.38;3.60;;;7.90;99.90;;;;;;5143484;27;20063;-77
2024/01/03 03:23:04;;;;;;;18.15;3.75;;;8.00;99.90;;;;;;5151431;27;20542;-77
2024/01/03 03:25:30;;;;;;;17.95;3.33;;;8.00;99.90;;;;;;5161116;27;20518;-76
2024/01/03 03:27:56;;;;;;;21.48;3.40;;;7.90;99.90;;;;;;5135833;27;20042;-76
2024/01/03 03:30:22;;;;;;;19.02;4.18;;;8.00;99.90;;;;;;5149628;27;20035;-77
2024/01/03 03:32:50;;;;;;;14.75;2.67;;;8.10;99.90;;;;;;5138099;27;20039;-77
2024/01/03 03:35:16;;;;;;;16.33;3.58;;;8.00;99.90;;;;;;5136938;27;20046;-75
2024/01/03 03:37:42;;;;;;;27.42;3.72;;;8.10;99.90;;;;;;5170737;27;20094;-76
2024/01/03 03:40:08;;;;;;;20.83;3.65;;;8.00;99.90;;;;;;5142928;27;20039;-77
2024/01/03 03:42:34;;;;;;;16.13;2.95;;;8.10;99.90;;;;;;5165617;27;20034;-76
2024/01/03 03:45:00;;;;;;;17.80;4.07;;;8.10;99.90;;;;;;5140843;27;20039;-77
2024/01/03 03:47:25;;;;;;;23.38;3.97;;;8.10;99.90;;;;;;5150106;27;20118;-76
2024/01/03 03:49:51;;;;;;;12.27;2.78;;;8.20;99.90;;;;;;5163673;27;20062;-75
2024/01/03 03:52:17;;;;;;;19.15;3.53;;;8.10;99.90;;;;;;5148207;27;20042;-76
2024/01/03 03:54:42;;;;;;;16.92;3.20;;;8.00;99.90;;;;;;5149915;27;20126;-75
2024/01/03 03:57:08;;;;;;;12.00;2.38;;;8.10;99.90;;;;;;5141903;27;20098;-76
2024/01/03 03:59:34;;;;;;;19.52;3.28;;;8.10;99.90;;;;;;5134482;27;20016;-76
2024/01/03 04:02:00;;;;;;;13.98;2.97;;;8.10;99.90;;;;;;5139088;27;20035;-75
2024/01/03 04:04:26;;;;;;;25.10;3.47;;;8.10;99.90;;;;;;5146680;27;20047;-76
2024/01/03 04:06:52;;;;;;;15.82;3.28;;;8.20;99.90;;;;;;5164244;27;20032;-75
2024/01/03 04:09:19;;;;;;;20.38;3.65;;;8.20;99.90;;;;;;5153852;27;20050;-76
2024/01/03 04:11:45;;;;;;;24.17;4.00;;;8.20;99.90;;;;;;5155790;27;20038;-75
2024/01/03 04:14:11;;;;;;;11.63;2.78;;;8.10;99.90;;;;;;5101004;27;20130;-75
2024/01/03 04:16:36;;;;;;;14.07;3.30;;;8.10;99.90;;;;;;5120872;27;20057;-75
2024/01/03 04:19:02;;;;;;;12.48;2.97;;;8.20;99.90;;;;;;5119026;27;20031;-75
2024/01/03 04:21:29;;;;;;;17.17;3.35;;;8.20;99.90;;;;;;5140932;27;20046;-75
2024/01/03 04:23:58;;;;;;;15.98;2.85;;;8.20;99.90;;;;;;5165093;27;20388;-75
2024/01/03 04:26:23;;;;;;;13.48;2.75;;;8.20;99.90;;;;;;5121208;27;20468;-76
2024/01/03 04:28:49;;;;;;;16.98;3.33;;;8.20;99.90;;;;;;5130118;27;20046;-76
2024/01/03 04:31:15;;;;;;;12.65;2.65;;;8.20;99.90;;;;;;5123898;27;20123;-75
2024/01/03 04:33:44;;;;;;;18.73;3.80;;;8.10;99.90;;;;;;5131198;27;20078;-74
2024/01/03 04:36:11;;;;;;;17.60;3.47;;;8.10;99.90;;;;;;5162053;27;20031;-74
2024/01/03 04:38:39;;;;;;;17.48;3.00;;;8.20;99.90;;;;;;5132465;27;20035;-76
2024/01/03 04:41:05;;;;;;;13.45;3.20;;;8.10;99.90;;;;;;5146250;27;20461;-76
2024/01/03 04:43:31;;;;;;;14.15;3.10;;;8.20;99.90;;;;;;5149283;27;20039;-76
2024/01/03 04:45:56;;;;;;;13.95;2.75;;;8.20;99.90;;;;;;5134613;27;20493;-75
2024/01/03 04:48:22;;;;;;;7.95;2.35;;;8.20;99.90;;;;;;5143336;27;20053;-76
2024/01/03 04:50:48;;;;;;;11.68;2.83;;;8.20;99.90;;;;;;5137858;27;20081;-75
2024/01/03 04:53:13;;;;;;;13.65;2.10;;;8.30;99.90;;;;;;5158037;27;20481;-75
2024/01/03 04:55:39;;;;;;;12.65;2.30;;;8.20;99.90;;;;;;5154533;27;20042;-76
2024/01/03 04:58:05;;;;;;;13.55;2.17;;;8.20;99.90;;;;;;5152071;27;20392;-76
2024/01/03 05:00:33;;;;;;;12.93;2.67;;;8.20;99.90;;;;;;5129566;27;20034;-75
2024/01/03 05:02:58;;;;;;;14.35;2.45;;;8.20;99.90;;;;;;5115232;27;20112;-75
2024/01/03 05:05:24;;;;;;;15.50;3.05;;;8.10;99.90;;;;;;5153533;27;20038;-76
2024/01/03 05:07:49;;;;;;;10.88;2.55;;;8.10;99.90;;;;;;5135995;27;20481;-75
2024/01/03 05:10:15;;;;;;;12.15;2.63;;;8.10;99.90;;;;;;5145639;27;20374;-75
2024/01/03 05:12:41;;;;;;;15.48;2.75;;;8.20;99.90;;;;;;5110888;27;20031;-77
2024/01/03 05:15:08;;;;;;;14.40;3.35;;;8.20;99.90;;;;;;5123181;27;20466;-74
2024/01/03 05:17:33;;;;;;;15.38;3.15;;;8.20;99.90;;;;;;5148426;27;20365;-75
2024/01/03 05:19:59;;;;;;;13.00;3.22;;;8.20;99.90;;;;;;5148799;27;20042;-76
2024/01/03 05:22:25;;;;;;;16.38;2.97;;;8.20;99.90;;;;;;5130066;27;20091;-75
2024/01/03 05:24:52;;;;;;;15.95;3.08;;;8.20;99.90;;;;;;5138305;27;20058;-75
2024/01/03 05:27:18;;;;;;;13.48;2.90;;;8.30;99.90;;;;;;5158074;27;20095;-76
2024/01/03 05:29:43;;;;;;;12.15;2.95;;;8.30;99.90;;;;;;5161206;27;20485;-74
2024/01/03 05:32:09;;;;;;;14.82;3.30;;;8.30;99.90;;;;;;5149421;27;20401;-76
2024/01/03 05:34:34;;;;;;;22.27;2.90;;;8.30;99.90;;;;;;5156969;27;20044;-76
2024/01/03 05:37:01;;;;;;;16.27;2.90;;;8.20;99.90;;;;;;5137417;27;20035;-76
2024/01/03 05:39:27;;;;;;;20.55;3.78;;;8.20;99.90;;;;;;5107025;27;20039;-75
2024/01/03 05:41:52;;;;;;;15.07;2.90;;;8.20;99.90;;;;;;5127924;27;20530;-76
2024/01/03 05:44:18;;;;;;;13.50;3.03;;;8.30;99.90;;;;;;5144419;27;20039;-76
2024/01/03 05:46:44;;;;;;;14.23;2.65;;;8.30;99.90;;;;;;5127868;27;20107;-75
2024/01/03 05:49:10;;;;;;;17.20;2.92;;;8.20;99.90;;;;;;5137972;27;20438;-74
2024/01/03 05:51:35;;;;;;;17.42;3.70;;;8.20;99.90;;;;;;5154059;27;20128;-77
2024/01/03 05:54:02;;;;;;;19.20;3.80;;;8.30;99.90;;;;;;5149271;27;20074;-77
2024/01/03 05:56:28;;;;;;;13.35;3.40;;;8.20;99.90;;;;;;5150391;27;20049;-77
2024/01/03 05:58:54;;;;;;;10.55;3.60;;;8.00;99.90;;;;;;5154913;27;20051;-76
2024/01/03 06:01:19;;;;;;;15.93;4.28;;;8.20;99.90;;;;;;5135967;27;20132;-77
2024/01/03 06:03:46;;;;;;;18.80;4.10;;;8.00;99.90;;;;;;5141093;27;20590;-76
2024/01/03 06:06:14;;;;;;;26.83;4.63;;;8.10;99.90;;;;;;5133920;27;20047;-77
2024/01/03 06:08:39;;;;;;;17.77;4.50;;;8.10;99.90;;;;;;5141834;27;20511;-75
2024/01/03 06:11:08;;;;;;;35.53;6.00;;;7.90;99.90;;;;;;5126039;27;20027;-76
2024/01/03 06:13:33;;;;;;;40.00;7.03;;;8.00;99.90;;;;;;5124960;27;20039;-76
2024/01/03 06:15:59;;;;;;;41.30;6.20;;;8.20;99.90;;;;;;5149525;27;20050;-77
2024/01/03 06:18:26;;;;;;;36.72;6.03;;;8.20;99.90;;;;;;5137659;27;20121;-75
2024/01/03 06:20:51;;;;;;;36.20;6.15;;;8.00;99.90;;;;;;5136255;27;20039;-75
2024/01/03 06:23:18;;;;;;;28.67;4.82;;;8.20;99.90;;;;;;5149939;27;20068;-75
2024/01/03 06:25:44;;;;;;;36.97;6.63;;;8.10;99.90;;;;;;5133608;27;20038;-76
2024/01/03 06:28:10;;;;;;;31.67;5.65;;;8.10;99.90;;;;;;5137974;27;20050;-75
2024/01/03 06:30:35;;;;;;;36.60;5.85;;;8.20;99.90;;;;;;5146469;27;20042;-75
2024/01/03 06:33:06;;;;;;;36.35;5.60;;;8.30;99.90;;;;;;5129815;27;20035;-77
2024/01/03 06:35:32;;;;;;;34.00;5.22;;;8.30;99.90;;;;;;5143686;27;20110;-76
2024/01/03 06:37:58;;;;;;;29.20;5.85;;;8.10;99.90;;;;;;5114150;27;20043;-76
2024/01/03 06:40:23;;;;;;;33.58;5.45;;;8.30;99.90;;;;;;5124371;27;20031;-74
2024/01/03 06:42:49;;;;;;;28.10;5.70;;;8.40;99.90;;;;;;5154892;27;20442;-76
2024/01/03 06:45:15;;;;;;;33.00;5.57;;;8.30;99.90;;;;;;5137847;27;20042;-76
2024/01/03 06:47:42;;;;;;;30.20;6.05;;;8.20;99.90;;;;;;5145754;27;20404;-75
2024/01/03 06:50:08;;;;;;;35.92;4.97;;;8.40;99.90;;;;;;5118352;27;20054;-75
2024/01/03 06:52:34;;;;;;;35.20;6.00;;;8.20;99.90;;;;;;5112423;27;20458;-76
2024/01/03 06:55:00;;;;;;;29.65;5.55;;;8.40;99.90;;;;;;5103754;27;20046;-75
2024/01/03 06:57:26;;;;;;;32.08;5.07;;;8.40;99.90;;;;;;5116070;27;20070;-75
2024/01/03 06:59:52;;;;;;;36.47;5.32;;;8.30;99.90;;;;;;5157380;27;20118;-75
2024/01/03 07:02:17;;;;;;;37.08;5.57;;;8.40;99.90;;;;;;5155840;27;20015;-75
2024/01/03 07:04:43;;;;;;;30.27;5.75;;;8.40;99.90;;;;;;5129013;27;20046;-75
2024/01/03 07:07:09;;;;;;;31.23;5.40;;;8.40;99.90;;;;;;5156873;27;20034;-77
2024/01/03 07:09:34;;;;;;;30.67;5.28;;;8.80;99.90;;;;;;5147242;27;20096;-76
2024/01/03 07:12:00;;;;;;;35.40;5.53;;;8.40;99.90;;;;;;5133178;27;20039;-77
2024/01/03 07:14:26;;;;;;;33.92;5.95;;;8.40;99.90;;;;;;5128250;27;20038;-76
2024/01/03 07:16:56;;;;;;;29.92;5.40;;;8.40;99.90;;;;;;5155776;27;20469;-76
2024/01/03 07:19:22;;;;;;;27.83;5.43;;;8.40;99.90;;;;;;5124119;27;20039;-76
2024/01/03 07:21:47;;;;;;;32.05;5.80;;;8.50;99.90;;;;;;5129642;27;20035;-77
2024/01/03 07:24:13;;;;;;;39.65;6.53;;;8.40;99.90;;;;;;5115068;27;20039;-75
2024/01/03 07:26:39;;;;;;;40.08;6.35;;;8.30;99.90;;;;;;5122691;27;20080;-76
2024/01/03 07:29:04;;;;;;;41.03;6.43;;;8.40;99.90;;;;;;5144659;27;20073;-76
2024/01/03 07:31:30;;;;;;;38.08;5.95;;;8.20;99.90;;;;;;5146889;27;20078;-76
2024/01/03 07:33:55;;;;;;;33.17;5.40;;;8.30;99.90;;;;;;5103252;28;20044;-76
2024/01/03 07:36:21;;;;;;;34.75;5.57;;;8.30;99.90;;;;;;5126347;27;20040;-76
2024/01/03 07:38:47;;;;;;;40.60;5.50;;;8.40;99.90;;;;;;5123844;27;20043;-74
2024/01/03 07:41:18;;;;;;;35.50;5.68;;;8.30;99.90;;;;;;5123230;28;20065;-76
2024/01/03 07:43:43;;;;;;;29.70;5.93;;;8.20;99.90;;;;;;5136828;28;20065;-75
2024/01/03 07:46:09;;;;;;;38.58;6.63;;;8.40;99.90;;;;;;5119139;27;20488;-74
2024/01/03 07:48:35;;;;;;;37.30;6.18;;;8.40;99.90;;;;;;5145963;27;20488;-75
2024/01/03 07:51:00;;;;;;;39.80;6.45;;;8.20;99.90;;;;;;5143995;27;20401;-75
2024/01/03 07:53:26;;;;;;;37.17;5.65;;;8.20;99.90;;;;;;5153799;27;20030;-76
2024/01/03 07:55:53;;;;;;;29.92;5.18;;;8.20;99.90;;;;;;5133727;27;20050;-77
2024/01/03 07:58:19;;;;;;;35.17;5.50;;;8.30;99.90;;;;;;5125450;27;20058;-75
2024/01/03 08:00:44;;;;;;;27.65;4.47;;;8.40;99.90;;;;;;5126318;27;20039;-76
2024/01/03 08:03:10;;;;;;;27.80;5.40;;;8.40;99.90;;;;;;5116680;28;20045;-76
2024/01/03 08:05:36;;;;;;;23.27;4.50;;;8.70;99.90;;;;;;5127191;27;20044;-74
2024/01/03 08:08:01;;;;;;;31.70;4.65;;;8.30;99.90;;;;;;5139777;27;20070;-75
2024/01/03 08:10:27;;;;;;;29.15;4.63;;;8.30;99.90;;;;;;5116619;27;20052;-74
2024/01/03 08:12:53;;;;;;;24.88;4.93;;;8.20;99.90;;;;;;5133189;27;20050;-74
2024/01/03 08:15:19;;;;;;;33.85;5.20;;;8.30;99.90;;;;;;5148483;27;20058;-75
2024/01/03 08:17:44;;;;;;;29.88;5.40;;;8.20;99.90;;;;;;5148198;27;20381;-75
2024/01/03 08:20:11;;;;;;;23.48;5.28;;;8.20;99.90;;;;;;5119495;27;20042;-74
2024/01/03 08:22:39;;;;;;;29.52;4.70;;;8.20;99.90;;;;;;5124261;27;20062;-74
2024/01/03 08:25:10;;;;;;;27.00;5.07;;;8.20;99.90;;;;;;5127263;27;20038;-74
2024/01/03 08:27:36;;;;;;;33.25;5.63;;;8.30;99.90;;;;;;5144442;27;20095;-75
2024/01/03 08:30:02;;;;;;;31.95;4.68;;;8.20;99.90;;;;;;5138759;27;20476;-75
2024/01/03 08:32:28;;;;;;;31.88;5.40;;;8.30;99.90;;;;;;5164603;27;20510;-75
2024/01/03 08:34:53;;;;;;;33.35;5.35;;;8.40;99.90;;;;;;5134978;27;20039;-75
2024/01/03 08:37:19;;;;;;;29.85;4.80;;;8.40;99.90;;;;;;5146303;27;20042;-75
2024/01/03 08:39:45;;;;;;;28.00;5.03;;;8.30;99.90;;;;;;5163954;27;20046;-75
2024/01/03 08:42:14;;;;;;;24.30;4.32;;;8.40;99.90;;;;;;5138003;27;20039;-77
2024/01/03 08:44:39;;;;;;;25.88;5.05;;;8.30;99.90;;;;;;5140914;27;20047;-76
2024/01/03 08:47:05;;;;;;;19.85;3.90;;;8.40;99.90;;;;;;5129435;27;20611;-75
2024/01/03 08:49:30;;;;;;;21.50;4.10;;;8.40;99.90;;;;;;5153884;27;20503;-75
2024/01/03 08:51:57;;;;;;;24.77;4.55;;;8.20;99.90;;;;;;5115255;27;20389;-74
2024/01/03 08:54:24;;;;;;;31.75;4.53;;;8.40;99.90;;;;;;5123080;27;20043;-76
2024/01/03 08:56:50;;;;;;;17.95;4.40;;;8.30;99.90;;;;;;5147932;27;20062;-75
2024/01/03 08:59:16;;;;;;;20.30;3.85;;;8.20;99.90;;;;;;5128316;27;20420;-76
2024/01/03 09:01:41;;;;;;;24.65;4.75;;;8.20;99.90;;;;;;5129519;27;20039;-74
2024/01/03 09:04:07;;;;;;;24.77;5.07;;;8.40;99.90;;;;;;5161774;27;20042;-75
2024/01/03 09:06:35;;;;;;;22.95;5.13;;;8.30;99.90;;;;;;5156104;27;20043;-74
2024/01/03 09:09:01;;;;;;;27.25;4.68;;;8.30;99.90;;;;;;5160760;27;20039;-74
2024/01/03 09:11:28;;;;;;;22.90;4.43;;;8.30;99.90;;;;;;5131342;27;20039;-74
2024/01/03 09:13:56;;;;;;;29.50;5.20;;;8.30;99.90;;;;;;5153414;27;20044;-74
2024/01/03 09:16:22;;;;;;;;;;;8.40;99.90;;;;;;5158611;27;20045;-75
2024/01/03 09:18:49;;;;;;;26.05;4.85;;;8.40;99.90;;;;;;5154752;27;19927;-76
2024/01/03 09:21:15;;;;;;;26.42;5.20;;;8.40;99.90;;;;;;5121536;28;20062;-74
2024/01/03 09:23:42;;;;;;;30.42;4.35;;;8.50;99.90;;;;;;5141197;27;20098;-75
2024/01/03 09:26:09;;;;;;;22.02;4.47;;;8.40;99.90;;;;;;5141083;27;20070;-74
2024/01/03 09:28:41;;;;;;;29.23;4.70;;;8.70;99.90;;;;;;5146565;27;20106;-74
2024/01/03 09:31:07;;;;;;;22.50;5.18;;;8.50;99.90;;;;;;5125065;27;20087;-77
2024/01/03 09:33:33;;;;;;;24.23;4.03;;;8.60;99.90;;;;;;5123315;27;20039;-75
2024/01/03 09:36:00;;;;;;;22.80;4.05;;;8.60;99.90;;;;;;5105861;27;20054;-76
2024/01/03 09:38:26;;;;;;;24.38;4.75;;;8.70;99.90;;;;;;5141576;27;20074;-75
2024/01/03 09:40:52;;;;;;;22.25;3.85;;;8.60;99.90;;;;;;5121636;27;20096;-75
2024/01/03 09:43:19;;;;;;;20.40;4.10;;;8.60;99.90;;;;;;5122499;27;20032;-76
2024/01/03 09:45:45;;;;;;;20.60;3.88;;;8.60;99.90;;;;;;5132724;27;20059;-74
2024/01/03 09:48:11;;;;;;;25.40;4.78;;;8.60;99.90;;;;;;5104761;27;20122;-75
2024/01/03 09:53:25;;;;;;;30.40;5.18;;;8.70;99.90;;;;;;5140140;27;20130;-74
2024/01/03 09:55:51;;;;;;;23.50;4.68;;;8.60;99.90;;;;;;5159504;27;20054;-76
2024/01/03 09:58:17;;;;;;;23.63;4.35;;;8.60;99.90;;;;;;5158932;27;20079;-75
2024/01/03 10:00:43;;;;;;;31.25;4.47;;;8.70;99.90;;;;;;5124842;27;20047;-73
2024/01/03 10:03:10;;;;;;;16.83;3.38;;;8.60;99.90;;;;;;5134898;27;20092;-74
2024/01/03 10:05:36;;;;;;;17.20;3.40;;;8.70;99.90;;;;;;5140363;27;20031;-76
2024/01/03 10:08:14;;;;;;;21.00;3.55;;;8.70;99.90;;;;;;5140010;27;20491;-76
2024/01/03 10:10:41;;;;;;;14.38;3.25;;;8.80;99.90;;;;;;5140024;27;20047;-74
2024/01/03 10:13:19;;;;;;;12.65;2.88;;;8.70;99.90;;;;;;5121869;27;20043;-76
2024/01/03 10:15:46;;;;;;;14.82;3.00;;;8.70;99.90;;;;;;5141272;27;20129;-74
2024/01/03 10:18:14;;;;;;;14.25;3.47;;;8.70;99.90;;;;;;5103689;27;20092;-74
2024/01/03 10:20:40;;;;;;;17.85;2.95;;;8.80;99.90;;;;;;5119690;27;20050;-76
2024/01/03 10:23:09;;;;;;;15.30;3.22;;;8.80;99.90;;;;;;5125061;27;20047;-74
2024/01/03 10:25:35;;;;;;;20.02;3.65;;;8.80;99.90;;;;;;5118603;27;20087;-75
2024/01/03 10:28:15;;;;;;;23.48;3.80;;;9.00;99.90;;;;;;5159273;27;20037;-75
2024/01/03 10:30:41;;;;;;;20.98;3.35;;;9.00;99.90;;;;;;5152997;27;20034;-75
2024/01/03 10:33:10;;;;;;;16.77;3.20;;;8.90;99.90;;;;;;5151835;27;20043;-74
2024/01/03 10:35:37;;;;;;;23.77;3.60;;;8.90;99.90;;;;;;5137900;27;20043;-75
2024/01/03 10:38:04;;;;;;;23.73;3.80;;;8.90;99.90;;;;;;5164015;27;20053;-75
2024/01/03 10:40:47;;;;;;;19.98;4.15;;;8.90;99.90;;;;;;5152690;27;20101;-75
2024/01/03 10:43:15;;;;;;;17.67;4.25;;;8.90;99.90;;;;;;5133139;27;20038;-75
2024/01/03 10:45:40;;;;;;;;;;;8.80;99.90;;;;;;5129272;27;20055;-76
2024/01/03 10:48:06;;;;;;;18.42;3.45;;;8.80;99.90;;;;;;5125356;27;19926;-76
2024/01/03 10:50:41;;;;;;;20.80;3.67;;;8.80;99.90;;;;;;5123423;27;20043;-76
2024/01/03 10:53:09;;;;;;;19.60;3.33;;;8.60;99.90;;;;;;5103480;28;20059;-77
2024/01/03 10:55:39;;;;;;;19.58;3.83;;;8.70;99.90;;;;;;5122367;28;20050;-76
2024/01/03 10:58:14;;;;;;;18.55;4.00;;;8.50;99.90;;;;;;5127327;27;20079;-76
2024/01/03 11:01:18;;;;;;;19.27;4.15;;;8.50;99.90;;;;;;5129002;27;20039;-75
2024/01/03 11:04:07;;;;;;;25.25;4.00;;;8.40;99.90;;;;;;5123716;27;20062;-75
2024/01/03 11:06:38;;;;;;;;;;;8.40;99.90;;;;;;5129448;27;20389;-75
2024/01/03 11:09:03;;;;;;;19.58;4.05;;;8.50;99.90;;;;;;5126681;27;20362;-76
2024/01/03 11:11:40;;;;;;;19.27;3.75;;;8.50;99.90;;;;;;5115724;28;20050;-74
2024/01/03 11:14:18;;;;;;;28.73;4.18;;;8.60;99.90;;;;;;5127201;27;20469;-75
2024/01/03 11:16:44;;;;;;;20.23;4.03;;;8.80;99.90;;;;;;5131223;27;20051;-74
2024/01/03 11:19:10;;;;;;;27.25;4.03;;;8.80;99.90;;;;;;5130230;27;20035;-75
2024/01/03 11:21:49;;;;;;;29.63;4.50;;;8.90;99.90;;;;;;5123564;28;20558;-74
2024/01/03 11:24:21;;;;;;;;;;;9.00;99.90;;;;;;5116455;28;20073;-74
2024/01/03 11:27:03;;;;;;;24.30;4.53;;;9.10;99.90;;;;;;5125991;28;19919;-75
2024/01/03 11:29:35;;;;;;;26.15;4.53;;;9.10;99.90;;;;;;5137643;27;20051;-75
2024/01/03 11:32:06;;;;;;;23.73;4.05;;;9.20;99.90;;;;;;5101952;28;20091;-75
2024/01/03 11:34:48;;;;;;;22.80;4.20;;;9.30;99.90;;;;;;5119397;28;20089;-74
2024/01/03 11:37:18;;;;;;;28.63;4.25;;;9.30;99.90;;;;;;5118280;28;20460;-75
2024/01/03 11:39:54;;;;;;;20.35;4.55;;;9.40;99.90;;;;;;5118710;28;20086;-74
2024/01/03 11:42:31;;;;;;;;;;;9.50;99.90;;;;;;5135767;28;20048;-74
2024/01/03 11:45:05;;;;;;;29.08;5.63;;;9.70;99.90;;;;;;5120345;28;19926;-75
2024/01/03 11:47:32;;;;;;;25.48;5.10;;;9.70;99.90;;;;;;5123293;27;20032;-75
2024/01/03 11:49:59;;;;;;;19.70;3.67;;;9.70;99.90;;;;;;5139840;27;20104;-76
2024/01/03 11:52:25;;;;;;;23.58;4.68;;;9.80;99.90;;;;;;5135202;27;20782;-75
2024/01/03 11:55:03;;;;;;;23.08;3.92;;;9.80;99.90;;;;;;5121099;28;20497;-75
2024/01/03 11:57:29;;;;;;;27.75;5.15;;;9.80;99.90;;;;;;5123539;27;20058;-74
2024/01/03 12:00:04;;;;;;;19.52;4.22;;;9.80;99.90;;;;;;5136531;27;20048;-75
2024/01/03 12:02:30;;;;;;;17.70;3.55;;;9.70;99.90;;;;;;5121400;28;20095;-75
2024/01/03 12:05:04;;;;;;;22.25;3.65;;;9.60;99.90;;;;;;5131123;27;20067;-75
2024/01/03 12:07:34;;;;;;;17.48;3.60;;;9.50;99.90;;;;;;5137175;27;20043;-75
2024/01/03 12:10:00;;;;;;;23.77;3.47;;;9.50;99.90;;;;;;5120717;28;20031;-75
2024/01/03 12:12:27;;;;;;;16.38;3.17;;;9.40;99.90;;;;;;5121775;28;20430;-75
2024/01/03 12:14:55;;;;;;;18.23;3.60;;;9.40;99.90;;;;;;5118919;28;20104;-75
2024/01/03 12:17:39;;;;;;;17.02;3.25;;;9.30;99.90;;;;;;5122670;27;20036;-75
2024/01/03 12:20:15;;;;;;;19.50;4.20;;;9.30;99.90;;;;;;5118994;28;20552;-74
2024/01/03 12:22:40;;;;;;;21.17;4.07;;;9.20;99.90;;;;;;5120632;27;20063;-74
2024/01/03 12:25:15;;;;;;;18.60;4.82;;;9.20;99.90;;;;;;5119833;28;20470;-75
2024/01/03 12:27:41;;;;;;;26.42;4.55;;;9.30;99.90;;;;;;5120585;27;20532;-74
2024/01/03 12:30:14;;;;;;;22.65;4.10;;;9.30;99.90;;;;;;5119264;27;20086;-74
2024/01/03 12:32:40;;;;;;;21.30;3.70;;;9.30;99.90;;;;;;5101516;27;20067;-74
2024/01/03 12:35:06;;;;;;;18.50;4.68;;;9.30;99.90;;;;;;5130136;27;20451;-74
2024/01/03 12:37:31;;;;;;;21.70;3.88;;;9.30;99.90;;;;;;5119834;27;20577;-74
2024/01/03 12:39:57;;;;;;;21.20;3.72;;;9.30;99.90;;;;;;5128446;27;20461;-75
2024/01/03 12:42:23;;;;;;;24.67;4.47;;;9.20;99.90;;;;;;5132045;27;20075;-74
2024/01/03 12:44:50;;;;;;;19.80;3.70;;;9.30;99.90;;;;;;5139435;27;20055;-74
2024/01/03 12:47:15;;;;;;;18.60;3.90;;;9.20;99.90;;;;;;5143768;27;20043;-74
2024/01/03 12:49:41;;;;;;;22.17;3.53;;;9.20;99.90;;;;;;5105544;27;20043;-74
2024/01/03 12:52:11;;;;;;;18.33;4.07;;;9.20;99.90;;;;;;5148741;27;20071;-74